createdAt,value
2022-10-29T00:00:56.316Z,21.48
2022-10-29T00:03:40.418Z,17.88
2022-10-29T00:06:11.456Z,14.82
2022-10-29T00:08:40.409Z,18.95
2022-10-29T00:11:16.526Z,18.73
2022-10-29T00:13:44.764Z,17.10
2022-10-29T00:16:14.179Z,19.75
2022-10-29T00:18:41.829Z,19.70
2022-10-29T00:21:12.893Z,20.17
2022-10-29T00:23:41.416Z,21.67
2022-10-29T00:26:09.288Z,21.50
2022-10-29T00:28:37.036Z,17.88
2022-10-29T00:31:12.635Z,16.05
2022-10-29T00:33:40.616Z,20.65
2022-10-29T00:36:16.449Z,18.25
2022-10-29T00:38:43.697Z,15.18
2022-10-29T00:41:14.254Z,17.77
2022-10-29T00:43:46.914Z,18.80
2022-10-29T00:46:21.368Z,23.98
2022-10-29T00:48:51.795Z,19.98
2022-10-29T00:51:20.006Z,18.97
2022-10-29T00:53:58.587Z,24.30
2022-10-29T00:56:28.901Z,21.98
2022-10-29T00:58:56.386Z,21.65
2022-10-29T01:01:23.605Z,18.20
2022-10-29T01:03:52.790Z,20.40
2022-10-29T01:06:20.037Z,20.23
2022-10-29T01:08:47.376Z,17.92
2022-10-29T01:11:33.397Z,22.95
2022-10-29T01:14:39.221Z,19.23
2022-10-29T01:17:13.190Z,16.25
2022-10-29T01:20:03.008Z,24.15
2022-10-29T01:22:39.514Z,15.85
2022-10-29T01:25:22.324Z,15.18
2022-10-29T01:28:07.056Z,18.50
2022-10-29T01:31:01.459Z,18.80
2022-10-29T01:33:39.724Z,15.55
2022-10-29T01:36:21.399Z,17.38
2022-10-29T01:39:03.029Z,16.35
2022-10-29T01:44:41.836Z,12.55
2022-10-29T01:47:18.617Z,16.90
2022-10-29T01:49:51.695Z,17.63
2022-10-29T01:52:22.063Z,20.13
2022-10-29T01:54:49.527Z,17.83
2022-10-29T01:57:43.098Z,21.20
2022-10-29T02:00:13.815Z,15.95
2022-10-29T02:03:05.805Z,20.98
2022-10-29T02:06:03.360Z,16.23
2022-10-29T02:08:54.384Z,17.25
2022-10-29T02:11:27.336Z,17.77
2022-10-29T02:14:00.977Z,17.25
2022-10-29T02:16:30.067Z,16.77
2022-10-29T02:18:58.341Z,14.38
2022-10-29T02:21:25.568Z,16.90
2022-10-29T02:23:53.095Z,18.63
2022-10-29T02:26:21.842Z,14.73
2022-10-29T02:28:48.981Z,17.98
2022-10-29T02:31:16.129Z,17.83
2022-10-29T02:33:43.186Z,14.73
2022-10-29T02:36:10.346Z,13.13
2022-10-29T02:38:37.292Z,17.95
2022-10-29T02:41:04.378Z,18.33
2022-10-29T02:43:32.315Z,20.02
2022-10-29T02:46:19.589Z,17.17
2022-10-29T02:48:47.351Z,14.77
2022-10-29T02:51:15.127Z,16.20
2022-10-29T02:53:42.173Z,16.85
2022-10-29T02:56:10.462Z,15.23
2022-10-29T02:58:37.656Z,19.75
2022-10-29T03:01:05.084Z,15.98
2022-10-29T03:03:33.274Z,13.23
2022-10-29T03:06:00.175Z,14.00
2022-10-29T03:08:27.121Z,15.35
2022-10-29T03:10:55.315Z,15.05
2022-10-29T03:13:22.340Z,15.88
2022-10-29T03:15:49.175Z,15.00
2022-10-29T03:18:16.426Z,16.50
2022-10-29T03:20:45.426Z,16.10
2022-10-29T03:23:12.384Z,15.88
2022-10-29T03:25:39.662Z,14.20
2022-10-29T03:28:07.802Z,16.23
2022-10-29T03:30:35.037Z,12.85
2022-10-29T03:33:02.313Z,14.88
2022-10-29T03:35:29.491Z,16.50
2022-10-29T03:37:56.409Z,16.17
2022-10-29T03:40:23.769Z,14.75
2022-10-29T03:42:50.603Z,16.23
2022-10-29T03:45:17.676Z,13.90
2022-10-29T03:47:44.889Z,15.18
2022-10-29T03:50:11.826Z,13.27
2022-10-29T03:52:38.868Z,15.18
2022-10-29T03:55:06.845Z,15.48
2022-10-29T03:57:34.061Z,14.13
2022-10-29T04:00:01.310Z,16.90
2022-10-29T04:02:28.576Z,14.85
2022-10-29T04:04:55.835Z,18.05
2022-10-29T04:07:22.778Z,18.17
2022-10-29T04:09:49.962Z,16.35
2022-10-29T04:12:16.829Z,17.83
2022-10-29T04:14:45.961Z,14.88
2022-10-29T04:17:13.282Z,14.88
2022-10-29T04:19:40.680Z,16.35
2022-10-29T04:28:36.651Z,13.85
2022-10-29T04:30:29.607Z,12.98
2022-10-29T04:32:58.991Z,14.13
2022-10-29T04:35:28.091Z,16.55
2022-10-29T04:37:57.959Z,11.98
2022-10-29T04:40:25.508Z,14.02
2022-10-29T04:42:52.880Z,16.00
2022-10-29T04:45:20.027Z,18.20
2022-10-29T04:47:48.194Z,17.77
2022-10-29T04:50:15.105Z,13.85
2022-10-29T04:52:43.234Z,14.60
2022-10-29T04:55:10.136Z,16.02
2022-10-29T04:57:37.474Z,16.77
2022-10-29T05:00:05.105Z,17.48
2022-10-29T05:02:32.486Z,15.00
2022-10-29T05:04:59.336Z,14.00
2022-10-29T05:07:26.363Z,14.15
2022-10-29T05:09:53.257Z,12.27
2022-10-29T05:12:20.318Z,13.05
2022-10-29T05:14:47.505Z,12.85
2022-10-29T05:17:14.691Z,13.50
2022-10-29T05:19:41.576Z,11.48
2022-10-29T05:22:08.680Z,14.60
2022-10-29T05:24:35.566Z,12.35
2022-10-29T05:27:06.266Z,15.38
2022-10-29T05:29:33.440Z,14.55
2022-10-29T05:32:00.721Z,14.00
2022-10-29T05:34:27.960Z,16.50
2022-10-29T05:36:55.199Z,12.40
2022-10-29T05:39:22.146Z,16.67
2022-10-29T05:41:49.273Z,11.35
2022-10-29T05:44:16.563Z,14.52
2022-10-29T05:46:44.141Z,12.98
2022-10-29T05:49:13.017Z,11.73
2022-10-29T05:51:40.144Z,11.75
2022-10-29T05:54:07.534Z,17.58
2022-10-29T05:56:34.677Z,13.93
2022-10-29T05:59:01.756Z,14.10
2022-10-29T06:01:29.076Z,12.30
2022-10-29T06:03:56.048Z,15.25
2022-10-29T06:06:23.263Z,9.75
2022-10-29T06:08:50.153Z,13.18
2022-10-29T06:11:17.307Z,10.98
2022-10-29T06:13:44.151Z,10.98
2022-10-29T06:16:11.631Z,10.80
2022-10-29T06:18:38.575Z,15.48
2022-10-29T06:21:05.943Z,12.82
2022-10-29T06:23:32.942Z,9.88
2022-10-29T06:26:03.589Z,12.95
2022-10-29T06:28:33.695Z,14.30
2022-10-29T06:31:02.492Z,13.57
2022-10-29T06:33:29.552Z,15.82
2022-10-29T06:36:01.116Z,10.10
2022-10-29T06:38:28.145Z,21.65
2022-10-29T06:40:55.326Z,12.60
2022-10-29T06:43:22.410Z,14.18
2022-10-29T06:45:50.203Z,15.57
2022-10-29T06:48:21.758Z,11.38
2022-10-29T06:50:50.991Z,13.82
2022-10-29T06:53:18.214Z,13.02
2022-10-29T06:55:45.470Z,14.27
2022-10-29T06:58:15.192Z,14.82
2022-10-29T07:00:43.741Z,10.30
2022-10-29T07:03:15.463Z,10.55
2022-10-29T07:08:10.203Z,10.20
2022-10-29T07:10:37.395Z,16.42
2022-10-29T07:13:05.034Z,12.00
2022-10-29T07:15:31.925Z,16.02
2022-10-29T07:18:07.784Z,10.45
2022-10-29T07:20:37.808Z,11.98
2022-10-29T07:23:05.512Z,12.77
2022-10-29T07:25:33.541Z,14.30
2022-10-29T07:28:05.412Z,13.00
2022-10-29T07:30:33.547Z,14.75
2022-10-29T07:33:00.759Z,10.95
2022-10-29T07:35:27.848Z,15.10
2022-10-29T07:38:10.451Z,12.77
2022-10-29T07:40:47.765Z,15.77
2022-10-29T07:43:15.858Z,15.60
2022-10-29T07:45:45.516Z,15.23
2022-10-29T07:48:13.092Z,14.80
2022-10-29T07:50:40.475Z,16.77
2022-10-29T07:53:08.649Z,19.75
2022-10-29T07:55:36.307Z,13.40
2022-10-29T07:58:06.661Z,13.95
2022-10-29T08:00:36.614Z,14.02
2022-10-29T08:03:04.115Z,13.40
2022-10-29T08:05:31.901Z,11.23
2022-10-29T08:07:59.915Z,9.80
2022-10-29T08:10:28.202Z,13.27
2022-10-29T08:12:58.221Z,14.98
2022-10-29T08:15:26.961Z,17.38
2022-10-29T08:17:54.340Z,14.88
2022-10-29T08:20:23.302Z,14.80
2022-10-29T08:22:50.256Z,16.05
2022-10-29T08:25:18.646Z,15.85
2022-10-29T08:27:45.807Z,14.32
2022-10-29T08:30:14.558Z,13.82
2022-10-29T08:32:47.822Z,13.85
2022-10-29T08:35:15.372Z,13.25
2022-10-29T08:37:45.871Z,13.40
2022-10-29T08:40:48.149Z,15.48
2022-10-29T08:43:30.522Z,18.83
2022-10-29T08:45:58.005Z,14.27
2022-10-29T08:48:33.989Z,14.05
2022-10-29T08:51:07.900Z,18.15
2022-10-29T08:53:42.442Z,16.65
2022-10-29T08:56:16.589Z,14.25
2022-10-29T08:59:11.045Z,15.25
2022-10-29T09:01:38.652Z,12.30
2022-10-29T09:04:33.394Z,16.77
2022-10-29T09:07:09.548Z,17.05
2022-10-29T09:09:46.650Z,19.45
2022-10-29T09:12:49.799Z,11.80
2022-10-29T09:15:38.512Z,13.38
2022-10-29T09:18:24.946Z,18.63
2022-10-29T09:21:27.898Z,13.80
2022-10-29T09:24:42.328Z,23.23
2022-10-29T09:27:18.149Z,16.20
2022-10-29T09:30:09.447Z,13.90
2022-10-29T09:35:32.213Z,16.10
2022-10-29T09:38:03.641Z,17.23
2022-10-29T09:40:43.312Z,15.27
2022-10-29T09:43:35.271Z,16.90
2022-10-29T09:46:23.956Z,20.20
2022-10-29T09:49:16.487Z,19.33
2022-10-29T09:51:55.130Z,18.45
2022-10-29T09:54:25.335Z,19.45
2022-10-29T09:56:55.755Z,25.40
2022-10-29T09:59:30.083Z,23.13
2022-10-29T10:01:59.281Z,20.50
2022-10-29T10:04:47.988Z,16.52
2022-10-29T10:07:22.126Z,21.30
2022-10-29T10:09:56.583Z,18.98
2022-10-29T10:12:27.488Z,24.17
2022-10-29T10:15:03.672Z,23.50
2022-10-29T10:17:59.145Z,34.45
2022-10-29T10:20:46.718Z,21.92
2022-10-29T10:23:21.454Z,22.95
2022-10-29T10:25:50.122Z,27.85
2022-10-29T10:28:20.024Z,24.73
2022-10-29T10:31:06.933Z,26.63
2022-10-29T10:33:36.766Z,29.02
2022-10-29T10:36:09.405Z,29.13
2022-10-29T10:38:45.373Z,33.00
2022-10-29T10:41:14.989Z,33.70
2022-10-29T10:43:45.776Z,30.60
2022-10-29T10:46:29.922Z,36.17
2022-10-29T10:48:58.472Z,31.65
2022-10-29T10:51:31.057Z,34.47
2022-10-29T10:54:01.166Z,28.80
2022-10-29T10:56:30.270Z,33.25
2022-10-29T10:59:17.306Z,27.33
2022-10-29T11:01:48.680Z,36.90
2022-10-29T11:04:29.374Z,29.75
2022-10-29T11:07:02.659Z,28.88
2022-10-29T11:09:40.379Z,34.38
2022-10-29T11:12:27.999Z,40.92
2022-10-29T11:15:19.679Z,27.27
2022-10-29T11:18:00.240Z,28.40
2022-10-29T11:20:35.672Z,23.42
2022-10-29T11:23:16.221Z,24.13
2022-10-29T11:26:08.104Z,31.55
2022-10-29T11:28:57.383Z,22.77
2022-10-29T11:31:45.177Z,31.23
2022-10-29T11:34:24.995Z,26.50
2022-10-29T11:37:01.087Z,21.42
2022-10-29T11:39:44.121Z,24.08
2022-10-29T11:42:11.697Z,23.60
2022-10-29T11:44:40.029Z,25.27
2022-10-29T11:47:27.254Z,25.60
2022-10-29T11:50:17.607Z,23.98
2022-10-29T11:53:03.406Z,32.05
2022-10-29T11:56:01.062Z,21.95
2022-10-29T11:58:39.706Z,23.50
2022-10-29T12:01:32.380Z,26.98
2022-10-29T12:04:27.320Z,23.35
2022-10-29T12:07:22.180Z,23.33
2022-10-29T12:10:13.932Z,20.85
2022-10-29T12:12:47.777Z,16.80
2022-10-29T12:15:28.237Z,24.10
2022-10-29T12:18:04.696Z,19.25
2022-10-29T12:20:46.328Z,21.63
2022-10-29T12:23:40.595Z,18.70
2022-10-29T12:26:17.961Z,21.90
2022-10-29T12:28:45.438Z,21.65
2022-10-29T12:31:27.453Z,18.52
2022-10-29T12:34:31.702Z,24.15
2022-10-29T12:37:18.758Z,26.45
2022-10-29T12:39:55.805Z,17.90
2022-10-29T12:42:26.701Z,19.25
2022-10-29T12:45:12.051Z,17.55
2022-10-29T12:47:50.695Z,19.13
2022-10-29T12:50:49.042Z,19.15
2022-10-29T12:53:35.736Z,16.88
2022-10-29T12:56:04.435Z,14.05
2022-10-29T12:58:52.774Z,17.10
2022-10-29T13:04:36.799Z,17.30
2022-10-29T13:07:23.043Z,19.00
2022-10-29T13:10:22.466Z,19.52
2022-10-29T13:12:59.074Z,13.48
2022-10-29T13:15:38.963Z,17.35
2022-10-29T13:18:09.232Z,16.60
2022-10-29T13:20:40.949Z,16.40
2022-10-29T13:23:38.010Z,15.45
2022-10-29T13:26:08.821Z,15.43
2022-10-29T13:28:35.903Z,17.88
2022-10-29T13:31:02.902Z,17.25
2022-10-29T13:33:30.004Z,16.33
2022-10-29T13:35:59.504Z,17.98
2022-10-29T13:39:06.326Z,12.30
2022-10-29T13:41:44.124Z,14.57
2022-10-29T13:44:16.633Z,15.98
2022-10-29T13:46:50.259Z,17.20
2022-10-29T13:49:22.151Z,16.00
2022-10-29T13:51:49.917Z,11.30
2022-10-29T13:57:29.726Z,10.95
2022-10-29T14:00:05.829Z,11.75
2022-10-29T14:02:47.846Z,11.00
2022-10-29T14:05:21.557Z,9.82
2022-10-29T14:08:07.539Z,15.80
2022-10-29T14:10:43.940Z,15.38
2022-10-29T14:13:14.522Z,24.05
2022-10-29T14:16:05.677Z,10.82
2022-10-29T14:18:42.686Z,15.65
2022-10-29T14:21:24.677Z,14.90
2022-10-29T14:23:57.169Z,11.15
2022-10-29T14:26:25.006Z,13.27
2022-10-29T14:28:52.992Z,15.77
2022-10-29T14:31:22.980Z,15.18
2022-10-29T14:33:59.769Z,14.32
2022-10-29T14:36:29.739Z,13.55
2022-10-29T14:38:58.820Z,13.88
2022-10-29T14:41:28.165Z,13.75
2022-10-29T14:44:09.127Z,17.60
2022-10-29T14:46:38.263Z,25.30
2022-10-29T14:49:11.227Z,17.35
2022-10-29T14:51:48.333Z,21.15
2022-10-29T14:54:22.876Z,16.42
2022-10-29T14:56:55.620Z,17.55
2022-10-29T14:59:28.223Z,11.85
2022-10-29T15:02:05.678Z,20.70
2022-10-29T15:04:58.425Z,13.88
2022-10-29T15:07:36.935Z,21.77
2022-10-29T15:10:19.130Z,15.63
2022-10-29T15:12:47.410Z,17.20
2022-10-29T15:15:17.472Z,15.98
2022-10-29T15:17:52.532Z,18.50
2022-10-29T15:20:47.931Z,19.92
2022-10-29T15:23:37.220Z,25.83
2022-10-29T15:26:09.212Z,17.95
2022-10-29T15:31:27.774Z,24.02
2022-10-29T15:33:58.890Z,20.08
2022-10-29T15:36:26.288Z,19.27
2022-10-29T15:39:19.377Z,20.20
2022-10-29T15:41:50.774Z,19.52
2022-10-29T15:44:37.485Z,16.73
2022-10-29T15:47:28.883Z,22.25
2022-10-29T15:49:56.779Z,24.95
2022-10-29T15:52:30.813Z,19.02
2022-10-29T15:55:01.113Z,22.77
2022-10-29T15:57:31.902Z,26.40
2022-10-29T16:02:37.068Z,25.88
2022-10-29T16:05:04.356Z,24.55
2022-10-29T16:07:31.547Z,20.25
2022-10-29T16:09:59.933Z,24.10
2022-10-29T16:12:27.232Z,18.67
2022-10-29T16:14:54.695Z,24.70
2022-10-29T16:17:21.659Z,27.20
2022-10-29T16:19:48.957Z,28.05
2022-10-29T16:22:31.076Z,22.35
2022-10-29T16:24:58.675Z,23.08
2022-10-29T16:27:26.137Z,17.08
2022-10-29T16:29:53.122Z,18.65
2022-10-29T16:32:23.386Z,24.90
2022-10-29T16:34:50.722Z,23.48
2022-10-29T16:37:19.795Z,20.17
2022-10-29T16:39:47.089Z,24.00
2022-10-29T16:42:37.252Z,20.42
2022-10-29T16:45:06.850Z,22.48
2022-10-29T16:47:34.148Z,21.88
2022-10-29T16:50:01.170Z,21.90
2022-10-29T16:52:29.794Z,27.40
2022-10-29T16:54:57.527Z,19.02
2022-10-29T16:57:25.483Z,24.30
2022-10-29T16:59:52.697Z,25.20
2022-10-29T17:02:19.683Z,27.67
2022-10-29T17:04:46.816Z,27.90
2022-10-29T17:07:14.156Z,22.10
2022-10-29T17:09:41.469Z,27.17
2022-10-29T17:12:08.635Z,27.15
2022-10-29T17:14:35.739Z,29.65
2022-10-29T17:17:03.954Z,24.65
2022-10-29T17:19:31.708Z,23.90
2022-10-29T17:21:59.031Z,25.52
2022-10-29T17:24:27.635Z,23.75
2022-10-29T17:26:54.942Z,25.90
2022-10-29T17:29:21.951Z,27.40
2022-10-29T17:31:49.399Z,29.15
2022-10-29T17:34:16.357Z,25.38
2022-10-29T17:36:44.589Z,25.50
2022-10-29T17:39:12.155Z,27.02
2022-10-29T17:41:39.509Z,24.25
2022-10-29T17:44:06.596Z,23.88
2022-10-29T17:46:34.793Z,23.73
2022-10-29T17:49:02.039Z,23.25
2022-10-29T17:51:29.280Z,24.58
2022-10-29T17:53:56.932Z,26.30
2022-10-29T17:56:24.484Z,23.73
2022-10-29T17:58:52.266Z,24.70
2022-10-29T18:01:19.958Z,24.13
2022-10-29T18:03:48.289Z,27.60
2022-10-29T18:06:16.154Z,23.27
2022-10-29T18:08:43.317Z,20.45
2022-10-29T18:11:16.975Z,26.08
2022-10-29T18:13:46.003Z,21.60
2022-10-29T18:16:15.019Z,20.77
2022-10-29T18:18:54.869Z,27.25
2022-10-29T18:21:30.498Z,20.98
2022-10-29T18:23:58.420Z,21.50
2022-10-29T18:26:34.221Z,22.15
2022-10-29T18:29:06.948Z,23.40
2022-10-29T18:31:34.857Z,28.75
2022-10-29T18:34:05.968Z,24.33
2022-10-29T18:36:35.660Z,23.00
2022-10-29T18:39:04.872Z,25.10
2022-10-29T18:41:32.241Z,22.60
2022-10-29T18:43:59.801Z,23.77
2022-10-29T18:46:27.797Z,20.45
2022-10-29T18:48:54.697Z,25.88
2022-10-29T18:51:24.473Z,26.67
2022-10-29T18:53:53.412Z,34.35
2022-10-29T18:56:22.906Z,23.65
2022-10-29T18:58:50.926Z,26.23
2022-10-29T19:01:20.339Z,29.88
2022-10-29T19:03:58.767Z,26.00
2022-10-29T19:06:28.959Z,23.80
2022-10-29T19:08:56.641Z,29.15
2022-10-29T19:11:28.383Z,25.00
2022-10-29T19:14:00.910Z,26.65
2022-10-29T19:16:31.003Z,27.45
2022-10-29T19:19:07.504Z,28.20
2022-10-29T19:21:36.511Z,23.30
2022-10-29T19:24:04.868Z,29.05
2022-10-29T19:26:34.367Z,24.33
2022-10-29T19:29:03.523Z,22.90
2022-10-29T19:31:32.961Z,23.88
2022-10-29T19:34:02.419Z,19.15
2022-10-29T19:36:30.249Z,23.52
2022-10-29T19:38:59.086Z,18.52
2022-10-29T19:41:26.955Z,29.50
2022-10-29T19:43:53.997Z,23.60
2022-10-29T19:46:24.677Z,22.27
2022-10-29T19:48:53.185Z,16.00
2022-10-29T19:51:21.397Z,22.08
2022-10-29T19:53:51.649Z,20.75
2022-10-29T19:56:20.430Z,20.90
2022-10-29T19:58:47.456Z,20.58
2022-10-29T20:01:17.672Z,22.77
2022-10-29T20:03:45.949Z,25.98
2022-10-29T20:06:13.710Z,21.17
2022-10-29T20:08:41.153Z,21.33
2022-10-29T20:11:08.420Z,18.27
2022-10-29T20:13:35.436Z,23.35
2022-10-29T20:16:10.934Z,22.80
2022-10-29T20:18:38.472Z,25.50
2022-10-29T20:23:40.239Z,24.70
2022-10-29T20:26:08.239Z,21.67
2022-10-29T20:28:35.450Z,26.33
2022-10-29T20:31:31.666Z,25.23
2022-10-29T20:34:01.337Z,32.97
2022-10-29T20:36:31.901Z,38.53
2022-10-29T20:38:59.631Z,45.43
2022-10-29T20:41:27.050Z,42.97
2022-10-29T20:43:56.687Z,52.30
2022-10-29T20:46:25.394Z,54.50
2022-10-29T20:48:52.800Z,51.85
2022-10-29T20:51:19.969Z,48.60
2022-10-29T20:53:47.465Z,46.90
2022-10-29T20:56:16.379Z,42.20
2022-10-29T20:58:44.636Z,43.92
2022-10-29T21:01:15.439Z,42.13
2022-10-29T21:03:43.969Z,47.10
2022-10-29T21:06:16.991Z,47.45
2022-10-29T21:08:46.597Z,42.42
2022-10-29T21:11:15.095Z,39.45
2022-10-29T21:13:42.915Z,37.95
2022-10-29T21:16:24.937Z,38.45
2022-10-29T21:18:54.717Z,41.53
2022-10-29T21:21:21.807Z,39.72
2022-10-29T21:23:49.317Z,39.70
2022-10-29T21:26:19.381Z,34.55
2022-10-29T21:28:48.202Z,34.83
2022-10-29T21:31:16.468Z,37.58
2022-10-29T21:33:43.415Z,39.20
2022-10-29T21:36:14.080Z,44.28
2022-10-29T21:38:41.612Z,37.05
2022-10-29T21:41:08.932Z,41.50
2022-10-29T21:43:35.862Z,48.25
2022-10-29T21:46:03.215Z,45.80
2022-10-29T21:48:30.170Z,41.40
2022-10-29T21:51:03.551Z,41.70
2022-10-29T21:53:31.057Z,44.55
2022-10-29T21:56:00.110Z,42.80
2022-10-29T21:58:27.385Z,44.67
2022-10-29T22:01:21.401Z,41.25
2022-10-29T22:03:48.475Z,45.63
2022-10-29T22:06:19.152Z,45.50
2022-10-29T22:08:47.861Z,45.42
2022-10-29T22:11:15.669Z,39.63
2022-10-29T22:13:43.028Z,40.70
2022-10-29T22:16:11.535Z,45.20
2022-10-29T22:18:39.030Z,47.25
2022-10-29T22:21:14.743Z,46.50
2022-10-29T22:23:47.050Z,45.85
2022-10-29T22:26:16.002Z,44.80
2022-10-29T22:28:43.473Z,40.67
2022-10-29T22:31:11.193Z,42.88
2022-10-29T22:33:38.221Z,39.55
2022-10-29T22:36:14.429Z,42.25
2022-10-29T22:38:41.852Z,38.75
2022-10-29T22:41:14.155Z,41.45
2022-10-29T22:43:41.620Z,38.65
2022-10-29T22:46:10.074Z,39.65
2022-10-29T22:48:37.092Z,36.53
2022-10-29T22:51:13.332Z,37.13
2022-10-29T22:53:41.698Z,32.00
2022-10-29T22:56:14.111Z,35.88
2022-10-29T22:58:41.322Z,37.75
2022-10-29T23:01:14.681Z,35.58
2022-10-29T23:03:42.981Z,40.08
2022-10-29T23:06:12.798Z,35.75
2022-10-29T23:08:40.062Z,36.10
2022-10-29T23:11:11.184Z,33.85
2022-10-29T23:13:38.596Z,36.40
2022-10-29T23:16:06.083Z,40.92
2022-10-29T23:18:33.572Z,40.38
2022-10-29T23:21:02.109Z,34.47
2022-10-29T23:23:30.414Z,37.80
2022-10-29T23:26:01.769Z,37.13
2022-10-29T23:28:34.263Z,38.35
2022-10-29T23:31:03.823Z,36.72
2022-10-29T23:33:31.946Z,33.97
2022-10-29T23:36:06.759Z,34.10
2022-10-29T23:38:34.850Z,35.65
2022-10-29T23:41:02.106Z,33.55
2022-10-29T23:43:29.548Z,33.70
2022-10-29T23:45:56.820Z,31.15
2022-10-29T23:48:24.201Z,34.67
2022-10-29T23:50:52.203Z,35.80
2022-10-29T23:53:19.942Z,31.52
2022-10-29T23:55:46.859Z,35.28
2022-10-29T23:58:14.577Z,36.47
